Time;durP1;ratioP1;P1;durP2;ratioP2;P2;SDS_P1;SDS_P2;PMS_P1;PMS_P2;Temp;Humidity;BMP_temperature;BMP_pressure;BME280_temperature;BME280_humidity;BME280_pressure;Samples;Min_cycle;Max_cycle;Signal;HPM_P1;HPM_P2
2022/01/20 00:00:33;;;;;;;33.78;5.78;;;2.80;99.90;;;;;;4986227;28;20405;-79
2022/01/20 00:03:10;;;;;;;31.27;5.20;;;2.80;99.90;;;;;;4985246;28;20054;-76
2022/01/20 00:06:42;;;;;;;25.25;5.25;;;2.70;99.90;;;;;;4986421;28;20046;-76
2022/01/20 00:09:10;;;;;;;29.70;5.03;;;2.60;99.90;;;;;;4985619;28;20055;-76
2022/01/20 00:28:18;;;;;;;38.60;6.93;;;2.20;99.90;;;;;;4989691;28;20054;-76
2022/01/20 00:31:02;;;;;;;30.73;6.05;;;2.20;99.90;;;;;;4972642;28;20050;-74
2022/01/20 00:33:40;;;;;;;37.53;6.28;;;2.20;99.90;;;;;;4988979;28;20088;-75
2022/01/20 00:38:38;;;;;;;40.50;6.85;;;2.10;99.90;;;;;;4988951;28;20375;-75
2022/01/20 00:41:14;;;;;;;38.67;6.40;;;2.10;99.90;;;;;;4989099;28;20046;-76
2022/01/20 00:43:43;;;;;;;46.88;7.38;;;2.10;99.90;;;;;;4989108;28;20478;-78
2022/01/20 00:46:11;;;;;;;31.23;6.65;;;2.10;99.90;;;;;;4988462;28;20491;-74
2022/01/20 00:48:39;;;;;;;31.17;6.57;;;2.10;99.90;;;;;;4989813;28;20093;-75
2022/01/20 00:51:08;;;;;;;34.15;6.80;;;2.20;99.90;;;;;;4989158;28;20039;-75
2022/01/20 00:53:36;;;;;;;42.63;6.88;;;2.10;99.90;;;;;;4988046;28;20050;-76
2022/01/20 00:56:04;;;;;;;32.42;6.65;;;2.20;99.90;;;;;;4988428;28;20167;-78
2022/01/20 00:58:32;;;;;;;35.47;6.57;;;2.20;99.90;;;;;;4988947;28;20606;-75
2022/01/20 01:01:00;;;;;;;;;;;2.10;99.90;;;;;;4973123;28;20051;-75
2022/01/20 01:03:28;;;;;;;35.65;6.78;;;2.20;99.90;;;;;;4988175;28;19925;-75
2022/01/20 01:06:14;;;;;;;37.85;7.18;;;2.20;99.90;;;;;;4972232;28;20066;-75
2022/01/20 01:08:41;;;;;;;41.53;7.00;;;2.20;99.90;;;;;;4988141;28;20502;-74
2022/01/20 01:11:09;;;;;;;41.08;7.53;;;2.20;99.90;;;;;;4989675;28;20053;-75
2022/01/20 01:13:38;;;;;;;43.20;7.13;;;2.10;99.90;;;;;;4989220;28;20054;-76
2022/01/20 01:16:09;;;;;;;42.45;7.35;;;2.20;99.90;;;;;;4988257;28;20458;-77
2022/01/20 01:21:41;;;;;;;33.10;7.43;;;2.10;99.90;;;;;;4987762;28;20598;-78
2022/01/20 01:24:08;;;;;;;47.17;7.50;;;2.20;99.90;;;;;;4988192;28;20057;-78
2022/01/20 01:26:37;;;;;;;33.65;7.35;;;2.10;99.90;;;;;;4988502;28;20054;-75
2022/01/20 01:29:19;;;;;;;;;;;2.00;99.90;;;;;;4988549;28;20069;-77
2022/01/20 01:31:46;;;;;;;29.40;7.30;;;2.00;99.90;;;;;;4989107;28;19929;-76
2022/01/20 01:34:15;;;;;;;40.63;7.85;;;2.00;99.90;;;;;;4971638;28;20118;-77
2022/01/20 01:37:02;;;;;;;36.08;6.90;;;1.90;99.90;;;;;;4971213;28;20038;-78
2022/01/20 01:39:30;;;;;;;46.42;7.80;;;1.80;99.90;;;;;;4989960;28;20763;-75
2022/01/20 01:41:59;;;;;;;32.03;7.40;;;1.80;99.90;;;;;;4988637;28;20058;-76
2022/01/20 01:44:30;;;;;;;32.80;6.78;;;1.70;99.90;;;;;;4987168;28;20065;-75
2022/01/20 01:47:00;;;;;;;37.88;7.03;;;1.70;99.90;;;;;;4987739;28;20057;-76
2022/01/20 01:49:29;;;;;;;29.33;6.68;;;1.60;99.90;;;;;;4988490;28;20057;-74
2022/01/20 01:51:57;;;;;;;;;;;1.60;99.90;;;;;;4988026;28;20050;-75
2022/01/20 01:54:25;;;;;;;33.85;5.90;;;1.60;99.90;;;;;;4971792;28;19922;-73
2022/01/20 01:56:53;;;;;;;37.78;7.63;;;1.50;99.90;;;;;;4988052;28;20586;-76
2022/01/20 01:59:26;;;;;;;37.35;7.57;;;1.50;99.90;;;;;;4972082;28;20515;-73
2022/01/20 02:02:02;;;;;;;33.35;7.70;;;1.50;99.90;;;;;;4970742;28;20283;-73
2022/01/20 02:04:34;;;;;;;38.30;8.05;;;1.40;99.90;;;;;;4971798;28;20054;-73
2022/01/20 02:18:48;;;;;;;44.63;7.28;;;1.40;99.90;;;;;;4986602;28;20754;-74
2022/01/20 02:21:35;;;;;;;34.78;7.05;;;1.40;99.90;;;;;;4987571;28;20042;-73
2022/01/20 02:24:04;;;;;;;36.40;7.00;;;1.30;99.90;;;;;;4987205;28;20577;-76
2022/01/20 02:26:32;;;;;;;35.92;7.78;;;1.30;99.90;;;;;;4986895;28;20058;-74
2022/01/20 02:29:01;;;;;;;36.55;7.22;;;1.20;99.90;;;;;;4978481;28;20491;-74
2022/01/20 02:31:34;;;;;;;31.50;6.72;;;1.20;99.90;;;;;;4970810;28;20055;-77
2022/01/20 02:34:16;;;;;;;33.35;7.28;;;1.10;99.90;;;;;;4999372;28;20050;-75
2022/01/20 02:36:52;;;;;;;47.60;7.70;;;1.10;99.90;;;;;;4972600;28;20049;-74
2022/01/20 02:45:04;;;;;;;33.75;7.45;;;1.00;99.90;;;;;;4950610;28;20476;-77
2022/01/20 02:47:33;;;;;;;52.03;8.88;;;1.00;99.90;;;;;;4951631;28;20797;-75
2022/01/20 02:50:02;;;;;;;37.70;8.05;;;1.00;99.90;;;;;;4968019;28;20058;-78
2022/01/20 02:52:35;;;;;;;37.72;8.18;;;1.00;99.90;;;;;;4984124;28;20042;-78
2022/01/20 02:55:03;;;;;;;34.28;7.60;;;0.90;99.90;;;;;;4987407;28;20058;-77
2022/01/20 02:57:31;;;;;;;41.35;8.40;;;0.90;99.90;;;;;;4987066;28;20065;-76
2022/01/20 02:59:58;;;;;;;37.17;8.48;;;0.90;99.90;;;;;;4988294;28;20054;-75
2022/01/20 03:02:26;;;;;;;40.60;7.72;;;0.90;99.90;;;;;;4986303;28;20065;-77
2022/01/20 03:04:54;;;;;;;47.72;8.38;;;0.90;99.90;;;;;;4986038;28;20057;-76
2022/01/20 03:07:30;;;;;;;43.30;8.32;;;0.90;99.90;;;;;;4967978;28;20042;-77
2022/01/20 03:09:58;;;;;;;56.00;8.57;;;0.80;99.90;;;;;;4967039;28;20055;-75
2022/01/20 03:12:25;;;;;;;47.28;8.75;;;0.80;99.90;;;;;;4967048;28;20058;-74
2022/01/20 03:14:53;;;;;;;50.38;9.10;;;0.80;99.90;;;;;;4967036;28;20062;-74
2022/01/20 03:17:22;;;;;;;48.85;9.75;;;0.80;99.90;;;;;;4967162;28;20496;-75
2022/01/20 03:19:49;;;;;;;44.22;8.55;;;0.80;99.90;;;;;;4967299;28;20058;-74
2022/01/20 03:22:17;;;;;;;57.38;9.77;;;0.90;99.90;;;;;;4951476;28;20416;-77
2022/01/20 03:24:45;;;;;;;38.70;8.98;;;0.90;99.90;;;;;;4967057;28;20404;-77
2022/01/20 03:27:13;;;;;;;52.63;8.98;;;0.80;99.90;;;;;;4951090;28;20266;-77
2022/01/20 03:29:42;;;;;;;44.90;8.63;;;0.80;99.90;;;;;;4967342;28;20050;-76
2022/01/20 03:32:09;;;;;;;53.90;8.70;;;0.80;99.90;;;;;;4967099;28;20058;-77
2022/01/20 03:34:37;;;;;;;41.22;7.85;;;0.80;99.90;;;;;;4954399;28;20422;-78
2022/01/20 03:37:11;;;;;;;45.80;9.00;;;0.70;99.90;;;;;;4986386;28;20057;-75
2022/01/20 03:39:59;;;;;;;48.78;9.38;;;0.70;99.90;;;;;;4986004;28;20479;-78
2022/01/20 03:42:27;;;;;;;47.60;9.80;;;0.70;99.90;;;;;;4986295;28;20061;-75
2022/01/20 03:44:55;;;;;;;;;;;0.70;99.90;;;;;;4986837;28;20046;-78
2022/01/20 03:47:25;;;;;;;44.25;9.15;;;0.70;99.90;;;;;;4969578;28;19926;-78
2022/01/20 03:52:29;;;;;;;48.92;9.35;;;0.70;99.90;;;;;;4986215;28;20060;-79
2022/01/20 03:54:57;;;;;;;52.95;8.73;;;0.70;99.90;;;;;;4969811;28;20050;-76
2022/01/20 03:57:25;;;;;;;;;;;0.70;99.90;;;;;;4987945;28;20046;-75
2022/01/20 03:59:55;;;;;;;46.05;8.05;;;0.70;99.90;;;;;;4986299;28;19929;-74
2022/01/20 04:02:41;;;;;;;44.65;9.23;;;0.70;99.90;;;;;;4972137;28;20585;-75
2022/01/20 04:05:41;;;;;;;33.45;8.02;;;0.70;99.90;;;;;;4982357;28;20524;-75
2022/01/20 04:08:32;;;;;;;40.65;8.40;;;0.70;99.90;;;;;;4985994;28;20054;-73
2022/01/20 04:11:06;;;;;;;37.60;8.80;;;0.60;99.90;;;;;;4969894;28;20061;-78
2022/01/20 04:13:35;;;;;;;47.17;9.77;;;0.60;99.90;;;;;;4986430;28;20050;-76
2022/01/20 04:16:15;;;;;;;52.72;9.30;;;0.60;99.90;;;;;;4986248;28;20065;-76
2022/01/20 04:18:56;;;;;;;47.83;9.23;;;0.60;99.90;;;;;;4970152;28;20042;-75
2022/01/20 04:21:26;;;;;;;51.58;9.48;;;0.60;99.90;;;;;;4985832;28;20069;-75
2022/01/20 04:23:55;;;;;;;46.58;9.80;;;0.60;99.90;;;;;;4986120;28;20042;-78
2022/01/20 04:26:25;;;;;;;58.90;10.20;;;0.70;99.90;;;;;;4985141;28;20062;-75
2022/01/20 04:28:53;;;;;;;47.17;9.52;;;0.60;99.90;;;;;;4953459;28;20471;-76
2022/01/20 04:31:23;;;;;;;43.50;10.27;;;0.70;99.90;;;;;;5001211;28;20579;-77
2022/01/20 04:33:51;;;;;;;44.05;9.30;;;0.60;99.90;;;;;;4969539;28;20050;-78
2022/01/20 04:36:19;;;;;;;;;;;0.60;99.90;;;;;;4985791;28;20053;-78
2022/01/20 04:38:47;;;;;;;46.40;8.35;;;0.60;99.90;;;;;;4985581;28;19926;-76
2022/01/20 04:41:15;;;;;;;46.55;8.63;;;0.50;99.90;;;;;;4986045;28;20049;-76
2022/01/20 04:43:43;;;;;;;58.20;8.70;;;0.40;99.90;;;;;;4985704;28;20058;-76
2022/01/20 04:46:24;;;;;;;54.90;9.27;;;0.40;99.90;;;;;;4986517;28;20475;-75
2022/01/20 04:57:19;;;;;;;43.80;8.52;;;0.50;99.90;;;;;;4986320;28;20042;-74
2022/01/20 04:59:49;;;;;;;33.00;8.50;;;0.40;99.90;;;;;;4983065;28;20058;-77
2022/01/20 05:02:18;;;;;;;41.15;8.75;;;0.40;99.90;;;;;;4984612;28;20058;-75
2022/01/20 05:04:53;;;;;;;37.05;7.72;;;0.30;99.90;;;;;;4985124;28;20050;-75
2022/01/20 05:07:39;;;;;;;37.80;8.57;;;0.30;99.90;;;;;;4986568;28;20042;-75
2022/01/20 05:10:12;;;;;;;40.22;8.82;;;0.20;99.90;;;;;;4972621;28;20049;-77
2022/01/20 05:15:23;;;;;;;29.75;7.97;;;0.10;99.90;;;;;;4988750;28;20065;-75
2022/01/20 05:17:53;;;;;;;35.10;8.23;;;0.10;99.90;;;;;;4988587;28;20034;-75
2022/01/20 05:20:21;;;;;;;44.83;8.30;;;0.10;99.90;;;;;;4972229;28;20054;-78
2022/01/20 05:22:49;;;;;;;;;;;0.00;99.90;;;;;;4988537;28;20161;-77
2022/01/20 05:25:23;;;;;;;32.42;7.25;;;0.00;99.90;;;;;;4972582;28;19977;-78
2022/01/20 05:27:50;;;;;;;35.25;7.82;;;0.00;99.90;;;;;;4987930;28;20499;-74
2022/01/20 05:30:20;;;;;;;32.30;8.80;;;0.00;99.90;;;;;;4988523;28;20043;-75
2022/01/20 05:33:08;;;;;;;42.58;9.23;;;-0.10;99.90;;;;;;4989607;28;20073;-77
2022/01/20 05:35:36;;;;;;;44.30;8.70;;;0.00;99.90;;;;;;4987967;28;20050;-76
2022/01/20 05:38:06;;;;;;;46.60;8.85;;;0.00;99.90;;;;;;4989233;28;20049;-74
2022/01/20 05:40:35;;;;;;;45.30;8.85;;;0.00;99.90;;;;;;4971730;28;20058;-78
2022/01/20 05:43:03;;;;;;;37.63;8.70;;;0.10;99.90;;;;;;4971860;28;20054;-76
2022/01/20 05:45:33;;;;;;;45.97;8.18;;;0.00;99.90;;;;;;4971859;28;20050;-78
2022/01/20 05:48:10;;;;;;;43.30;8.88;;;0.10;99.90;;;;;;4971169;28;20051;-79
2022/01/20 05:51:05;;;;;;;38.13;7.78;;;0.10;99.90;;;;;;4990611;28;20062;-79
2022/01/20 05:53:33;;;;;;;32.90;8.15;;;0.20;99.90;;;;;;4987462;28;20042;-75
2022/01/20 05:56:01;;;;;;;43.50;7.70;;;0.20;99.90;;;;;;4987441;28;20613;-77
2022/01/20 05:58:36;;;;;;;35.70;7.70;;;0.20;99.90;;;;;;4987284;28;20050;-78
2022/01/20 06:01:08;;;;;;;44.95;7.45;;;0.10;99.90;;;;;;4987279;28;20046;-79
2022/01/20 06:03:36;;;;;;;30.55;6.57;;;0.20;99.90;;;;;;4986858;28;20399;-77
2022/01/20 06:06:10;;;;;;;37.63;7.10;;;0.10;99.90;;;;;;4987135;28;20057;-79
2022/01/20 06:08:41;;;;;;;39.70;7.22;;;0.10;99.90;;;;;;4971321;28;20057;-79
2022/01/20 06:11:09;;;;;;;34.22;6.38;;;0.10;99.90;;;;;;4986993;28;20046;-79
2022/01/20 06:13:38;;;;;;;34.80;5.90;;;0.20;99.90;;;;;;4986806;28;20046;-78
2022/01/20 06:16:06;;;;;;;43.70;6.82;;;0.10;99.90;;;;;;4971105;28;20058;-79
2022/01/20 06:18:34;;;;;;;;;;;0.10;99.90;;;;;;4970823;28;20053;-78
2022/01/20 06:21:02;;;;;;;32.53;5.78;;;0.10;99.90;;;;;;4986877;28;19921;-79
2022/01/20 06:23:30;;;;;;;;;;;0.10;99.90;;;;;;4970916;28;20053;-78
2022/01/20 06:26:05;;;;;;;30.08;6.15;;;0.10;99.90;;;;;;4986607;28;20302;-77
2022/01/20 06:28:35;;;;;;;33.78;5.97;;;0.10;99.90;;;;;;4986817;28;20475;-76
2022/01/20 06:31:05;;;;;;;36.35;6.43;;;0.10;99.90;;;;;;4970679;28;20459;-77
2022/01/20 06:33:33;;;;;;;;;;;0.10;99.90;;;;;;4978094;28;20050;-75
2022/01/20 06:36:01;;;;;;;28.38;6.53;;;0.00;99.90;;;;;;5001264;28;19933;-75
2022/01/20 06:38:29;;;;;;;31.65;7.28;;;0.10;99.90;;;;;;4986479;28;20501;-78
2022/01/20 06:41:00;;;;;;;38.70;8.07;;;0.10;99.90;;;;;;4970267;28;20070;-77
2022/01/20 06:43:31;;;;;;;35.75;8.05;;;0.10;99.90;;;;;;4986632;28;20053;-79
2022/01/20 06:45:59;;;;;;;47.22;8.60;;;0.10;99.90;;;;;;4986298;28;20050;-75
2022/01/20 06:48:46;;;;;;;37.53;7.85;;;0.10;99.90;;;;;;4985943;28;20490;-75
2022/01/20 06:51:24;;;;;;;44.88;8.95;;;0.10;99.90;;;;;;4987532;28;20042;-75
2022/01/20 06:53:53;;;;;;;38.10;8.57;;;0.10;99.90;;;;;;4986029;28;20054;-80
2022/01/20 06:56:20;;;;;;;;;;;0.10;99.90;;;;;;4966654;28;20069;-78
2022/01/20 06:59:08;;;;;;;38.65;7.78;;;0.10;99.90;;;;;;4966875;28;20378;-75
2022/01/20 07:01:36;;;;;;;40.55;8.40;;;0.10;99.90;;;;;;4979096;28;20115;-74
2022/01/20 07:04:04;;;;;;;;;;;0.10;99.90;;;;;;5006059;28;20418;-77
2022/01/20 07:06:31;;;;;;;38.70;9.57;;;0.10;99.90;;;;;;4972938;28;19933;-74
2022/01/20 07:09:18;;;;;;;47.03;9.57;;;0.10;99.90;;;;;;4970672;28;20050;-74
2022/01/20 07:11:48;;;;;;;38.60;8.82;;;0.10;99.90;;;;;;4969410;28;20372;-76
2022/01/20 07:14:17;;;;;;;34.88;9.60;;;0.00;99.90;;;;;;5004472;28;20038;-74
2022/01/20 07:16:47;;;;;;;44.38;10.80;;;0.00;99.90;;;;;;4992147;28;20050;-76
2022/01/20 07:19:16;;;;;;;36.80;9.82;;;-0.10;99.90;;;;;;4968778;28;20050;-74
2022/01/20 07:21:44;;;;;;;37.78;9.60;;;0.00;99.90;;;;;;4988313;28;20042;-75
2022/01/20 07:24:15;;;;;;;33.13;9.23;;;0.00;99.90;;;;;;4961655;28;20423;-76
2022/01/20 07:26:43;;;;;;;38.88;9.20;;;-0.10;99.90;;;;;;4994217;28;20086;-75
2022/01/20 07:29:26;;;;;;;40.83;10.57;;;-0.10;99.90;;;;;;4997181;28;20073;-74
2022/01/20 07:31:56;;;;;;;33.88;9.60;;;-0.10;99.90;;;;;;4985133;28;20125;-76
2022/01/20 07:34:24;;;;;;;42.05;10.25;;;-0.10;99.90;;;;;;4994426;28;20050;-75
2022/01/20 07:36:52;;;;;;;39.80;10.80;;;-0.10;99.90;;;;;;4982651;28;20441;-74
2022/01/20 07:39:20;;;;;;;;;;;-0.20;99.90;;;;;;4986818;28;20792;-76
2022/01/20 07:41:47;;;;;;;54.55;9.70;;;-0.20;99.90;;;;;;4986440;28;19944;-74
2022/01/20 07:44:35;;;;;;;;;;;-0.20;99.90;;;;;;5004579;28;20393;-77
2022/01/20 07:47:22;;;;;;;38.42;9.70;;;-0.20;99.90;;;;;;5002758;28;19925;-77
2022/01/20 07:49:49;;;;;;;35.88;10.18;;;-0.30;99.90;;;;;;4988406;28;20491;-78
2022/01/20 07:52:17;;;;;;;43.10;10.57;;;-0.30;99.90;;;;;;4999635;28;20057;-77
2022/01/20 07:54:45;;;;;;;46.00;9.98;;;-0.30;99.90;;;;;;5017588;28;20546;-75
2022/01/20 07:57:13;;;;;;;42.95;11.27;;;-0.30;99.90;;;;;;4986752;28;20080;-76
2022/01/20 07:59:41;;;;;;;41.40;10.60;;;-0.30;99.90;;;;;;4997911;28;20041;-77
2022/01/20 08:02:09;;;;;;;41.95;10.85;;;-0.30;99.90;;;;;;5001052;28;20794;-77
2022/01/20 08:04:37;;;;;;;45.20;10.32;;;-0.20;99.90;;;;;;4999426;28;20050;-74
2022/01/20 08:07:09;;;;;;;46.42;10.32;;;-0.30;99.90;;;;;;4986465;28;20058;-73
2022/01/20 08:09:38;;;;;;;38.00;10.10;;;-0.20;99.90;;;;;;4971823;28;20451;-76
2022/01/20 08:12:21;;;;;;;37.92;10.63;;;-0.20;99.90;;;;;;5004623;28;20057;-79
2022/01/20 08:15:03;;;;;;;37.83;10.45;;;-0.20;99.90;;;;;;5019505;28;20042;-75
2022/01/20 08:17:42;;;;;;;34.03;9.27;;;-0.20;99.90;;;;;;5000558;28;20056;-75
2022/01/20 08:20:11;;;;;;;33.80;9.40;;;-0.20;99.90;;;;;;4966885;28;20061;-76
2022/01/20 08:22:41;;;;;;;36.20;8.88;;;-0.20;99.90;;;;;;4984325;28;20422;-74
2022/01/20 08:25:15;;;;;;;33.17;8.98;;;-0.20;99.90;;;;;;4968892;28;20059;-75
2022/01/20 08:27:45;;;;;;;33.38;8.70;;;-0.10;99.90;;;;;;4968923;28;20050;-74
2022/01/20 08:30:16;;;;;;;35.17;9.15;;;-0.10;99.90;;;;;;4984905;28;20057;-76
2022/01/20 08:32:46;;;;;;;42.33;9.95;;;-0.10;99.90;;;;;;4968617;28;20053;-76
2022/01/20 08:35:33;;;;;;;32.90;9.05;;;0.00;99.90;;;;;;4986044;28;20061;-74
2022/01/20 08:38:07;;;;;;;30.13;8.43;;;0.00;99.90;;;;;;4985861;28;20058;-75
2022/01/20 08:40:36;;;;;;;38.83;9.55;;;0.10;99.90;;;;;;5004866;28;20065;-75
2022/01/20 08:43:09;;;;;;;32.00;9.13;;;0.10;99.90;;;;;;4983842;28;20046;-76
2022/01/20 08:45:39;;;;;;;35.83;6.32;;;0.20;99.90;;;;;;4987657;28;20038;-75
2022/01/20 08:48:11;;;;;;;29.17;5.30;;;0.30;99.90;;;;;;4991032;28;20053;-77
2022/01/20 08:51:11;;;;;;;29.85;4.88;;;0.40;99.90;;;;;;5029074;28;20422;-75
2022/01/20 08:54:08;;;;;;;22.65;4.45;;;0.50;99.90;;;;;;4984579;28;20054;-74
2022/01/20 08:56:37;;;;;;;25.52;3.88;;;0.60;99.90;;;;;;4986695;28;20061;-75
2022/01/20 08:59:07;;;;;;;29.77;4.20;;;0.70;99.90;;;;;;4988025;28;20042;-77
2022/01/20 09:01:36;;;;;;;18.63;3.65;;;0.80;99.90;;;;;;4987618;28;20054;-75
2022/01/20 09:04:05;;;;;;;21.88;3.60;;;1.00;99.90;;;;;;4994692;28;20039;-74
2022/01/20 09:06:35;;;;;;;17.58;2.97;;;1.10;99.90;;;;;;4987054;28;20046;-75
2022/01/20 09:09:17;;;;;;;19.63;3.13;;;1.30;99.90;;;;;;4999733;28;20057;-74
2022/01/20 09:12:04;;;;;;;20.13;3.67;;;1.40;99.90;;;;;;4988574;28;20439;-74
2022/01/20 09:17:22;;;;;;;22.13;2.70;;;1.50;99.90;;;;;;4987057;28;20079;-74
2022/01/20 09:19:50;;;;;;;;;;;1.60;99.90;;;;;;4987481;28;20054;-75
2022/01/20 09:22:20;;;;;;;17.80;2.83;;;1.70;99.90;;;;;;4973676;28;19925;-74
2022/01/20 09:24:48;;;;;;;19.95;2.70;;;1.80;99.90;;;;;;4983841;28;20038;-73
2022/01/20 09:27:17;;;;;;;17.77;2.80;;;1.90;99.90;;;;;;4987459;28;20057;-75
2022/01/20 09:29:46;;;;;;;11.93;2.00;;;2.00;99.90;;;;;;4984662;28;20042;-74
2022/01/20 09:32:17;;;;;;;21.15;2.95;;;2.10;99.90;;;;;;4984587;28;20252;-75
2022/01/20 09:34:46;;;;;;;20.77;2.88;;;2.20;99.90;;;;;;4985833;28;20050;-74
2022/01/20 09:37:15;;;;;;;18.90;2.63;;;2.30;99.90;;;;;;4985527;28;20053;-73
2022/01/20 09:39:47;;;;;;;21.42;3.10;;;2.40;99.90;;;;;;5002568;28;20114;-73
2022/01/20 09:42:26;;;;;;;26.48;3.17;;;2.40;99.90;;;;;;4985126;28;20050;-73
2022/01/20 09:44:54;;;;;;;18.63;2.45;;;2.50;99.90;;;;;;4956806;28;20065;-73
2022/01/20 09:47:24;;;;;;;;;;;2.60;99.90;;;;;;4980048;28;20487;-72
2022/01/20 09:49:58;;;;;;;19.50;2.60;;;2.60;99.90;;;;;;4987807;28;19929;-74
2022/01/20 09:52:36;;;;;;;14.27;2.33;;;2.70;99.90;;;;;;4986244;28;20043;-74
2022/01/20 09:55:24;;;;;;;14.15;2.78;;;2.70;99.90;;;;;;4986296;28;20043;-74
2022/01/20 09:57:52;;;;;;;18.15;2.67;;;2.80;99.90;;;;;;4989312;28;20050;-75
2022/01/20 10:00:21;;;;;;;13.90;2.67;;;2.90;99.90;;;;;;5016451;28;20046;-74
2022/01/20 10:03:06;;;;;;;18.90;2.90;;;3.00;99.90;;;;;;5002333;28;20058;-80
2022/01/20 10:05:42;;;;;;;16.67;3.08;;;3.00;99.90;;;;;;4977724;28;20054;-77
2022/01/20 10:08:27;;;;;;;16.17;3.05;;;3.10;99.90;;;;;;4987045;28;20061;-77
2022/01/20 10:11:17;;;;;;;18.15;2.63;;;3.20;99.90;;;;;;4985870;28;20050;-75
2022/01/20 10:14:12;;;;;;;24.25;3.58;;;3.30;99.90;;;;;;4990073;28;20395;-77
2022/01/20 10:16:50;;;;;;;;;;;3.30;99.90;;;;;;4986082;28;20062;-71
2022/01/20 10:19:28;;;;;;;21.35;2.88;;;3.40;99.90;;;;;;4970926;28;20417;-72
2022/01/20 10:22:12;;;;;;;20.23;2.72;;;3.50;99.90;;;;;;4971629;28;20050;-72
2022/01/20 10:25:02;;;;;;;23.88;3.08;;;3.70;99.90;;;;;;4992962;28;20044;-72
2022/01/20 10:28:00;;;;;;;20.50;2.70;;;4.00;99.90;;;;;;4975477;28;20046;-72
2022/01/20 10:30:29;;;;;;;;;;;4.40;99.90;;;;;;4952215;28;20055;-71
2022/01/20 10:33:00;;;;;;;15.30;2.65;;;4.80;99.90;;;;;;4967786;28;19926;-71
2022/01/20 10:35:36;;;;;;;11.93;2.38;;;5.40;99.90;;;;;;4994900;28;20054;-72
2022/01/20 10:38:13;;;;;;;18.90;3.00;;;6.00;99.90;;;;;;4970351;28;20069;-72
2022/01/20 10:40:50;;;;;;;19.88;3.22;;;6.60;99.90;;;;;;4986543;28;20054;-72
2022/01/20 10:43:26;;;;;;;13.27;2.38;;;7.20;99.90;;;;;;4970920;28;20744;-72
2022/01/20 10:46:05;;;;;;;18.17;3.08;;;7.70;99.90;;;;;;4986775;28;20053;-71
2022/01/20 10:48:33;;;;;;;18.02;2.72;;;8.10;99.90;;;;;;5002315;28;20055;-71
2022/01/20 10:51:17;;;;;;;15.20;2.78;;;8.40;99.90;;;;;;4970200;28;20045;-71
2022/01/20 10:54:15;;;;;;;19.35;3.15;;;8.80;99.90;;;;;;4979435;28;20038;-72
2022/01/20 10:56:52;;;;;;;12.40;2.45;;;9.10;99.90;;;;;;4985724;28;20483;-72
2022/01/20 10:59:22;;;;;;;15.63;2.70;;;9.50;99.90;;;;;;4986243;28;20053;-73
2022/01/20 11:02:00;;;;;;;19.98;3.35;;;9.80;99.90;;;;;;4996909;28;20442;-73
2022/01/20 11:04:29;;;;;;;;;;;10.10;99.90;;;;;;4981687;28;20045;-73
2022/01/20 11:07:04;;;;;;;13.52;2.75;;;10.30;99.90;;;;;;4988685;28;19928;-71
2022/01/20 11:09:44;;;;;;;13.00;2.75;;;10.60;99.90;;;;;;5005408;28;20061;-72
2022/01/20 11:12:35;;;;;;;18.40;3.33;;;11.00;99.90;;;;;;4996439;28;20782;-72
2022/01/20 11:15:29;;;;;;;17.50;3.05;;;11.30;99.90;;;;;;4997290;28;20062;-72
2022/01/20 11:17:59;;;;;;;15.43;3.30;;;11.60;99.90;;;;;;4972037;28;20054;-72
2022/01/20 11:20:32;;;;;;;15.85;3.35;;;11.90;99.90;;;;;;5005681;28;20046;-72
2022/01/20 11:23:04;;;;;;;13.98;3.53;;;12.10;99.90;;;;;;5003160;28;20057;-72
2022/01/20 11:25:40;;;;;;;15.43;2.78;;;12.40;99.90;;;;;;5014448;28;20042;-71
2022/01/20 11:28:24;;;;;;;17.85;3.75;;;12.40;99.90;;;;;;4982232;28;20057;-73
2022/01/20 11:30:59;;;;;;;16.37;3.47;;;12.60;99.90;;;;;;4967250;28;20055;-73
2022/01/20 11:34:16;;;;;;;12.80;3.50;;;12.90;99.90;;;;;;4974135;28;20165;-71
2022/01/20 11:36:44;;;;;;;14.98;3.30;;;13.10;97.10;;;;;;4988193;28;20064;-72
2022/01/20 11:39:32;;;;;;;;;;;13.20;98.00;;;;;;5006599;28;20050;-73
2022/01/20 11:42:00;;;;;;;16.98;3.03;;;13.30;95.90;;;;;;5004726;28;19922;-73
2022/01/20 11:44:29;;;;;;;15.32;3.13;;;13.30;96.90;;;;;;4990698;28;20415;-73
2022/01/20 11:47:07;;;;;;;15.02;2.80;;;13.60;96.20;;;;;;4985115;28;20050;-72
2022/01/20 11:49:38;;;;;;;16.23;2.88;;;13.70;94.20;;;;;;4984946;28;20438;-74
2022/01/20 11:52:09;;;;;;;17.80;3.17;;;13.80;95.30;;;;;;4998364;28;20046;-72
2022/01/20 11:54:38;;;;;;;;;;;13.90;94.90;;;;;;5000113;28;20046;-72
2022/01/20 11:57:30;;;;;;;12.90;3.00;;;14.00;90.80;;;;;;5004713;28;19925;-73
2022/01/20 12:00:03;;;;;;;15.20;3.15;;;14.20;91.80;;;;;;4985581;28;20430;-72
2022/01/20 12:02:39;;;;;;;11.95;2.88;;;14.10;92.80;;;;;;5005099;28;20053;-73
2022/01/20 12:05:25;;;;;;;15.80;3.07;;;14.10;91.70;;;;;;4995876;28;20060;-73
2022/01/20 12:08:18;;;;;;;14.18;3.05;;;14.10;91.40;;;;;;4984941;28;20300;-74
2022/01/20 12:11:05;;;;;;;16.27;3.25;;;14.20;91.80;;;;;;4985543;28;20057;-78
2022/01/20 12:13:32;;;;;;;15.93;2.80;;;14.30;89.00;;;;;;5006973;28;20057;-77
2022/01/20 12:16:02;;;;;;;13.82;3.13;;;14.50;91.00;;;;;;5005338;28;20057;-78
2022/01/20 12:18:30;;;;;;;14.20;2.80;;;14.60;90.50;;;;;;5008425;28;20494;-79
2022/01/20 12:21:04;;;;;;;11.32;2.90;;;14.70;87.30;;;;;;4992694;28;20502;-77
2022/01/20 12:23:44;;;;;;;12.80;3.28;;;14.70;89.10;;;;;;5008653;28;20049;-79
2022/01/20 12:26:13;;;;;;;14.52;3.35;;;14.80;87.30;;;;;;4977678;28;20050;-77
2022/01/20 12:28:41;;;;;;;13.60;2.85;;;15.00;88.30;;;;;;4988673;28;20054;-77
2022/01/20 12:31:09;;;;;;;16.60;3.30;;;15.10;88.00;;;;;;4988354;28;20047;-77
2022/01/20 12:33:41;;;;;;;12.18;2.60;;;15.20;87.20;;;;;;4989576;28;20054;-79
2022/01/20 12:36:14;;;;;;;11.23;2.83;;;15.20;85.20;;;;;;5001796;28;20406;-78
2022/01/20 12:38:45;;;;;;;12.80;2.60;;;15.20;83.60;;;;;;5008495;28;20057;-78
2022/01/20 12:41:24;;;;;;;9.75;2.25;;;15.20;83.00;;;;;;5007365;28;20572;-76
2022/01/20 12:43:54;;;;;;;13.25;2.67;;;15.00;78.90;;;;;;4989222;28;20289;-76
2022/01/20 12:46:33;;;;;;;12.95;2.83;;;14.60;80.40;;;;;;4999908;28;20502;-74
2022/01/20 12:49:09;;;;;;;14.10;2.78;;;14.40;81.00;;;;;;5001813;28;20045;-77
2022/01/20 12:51:38;;;;;;;9.57;2.30;;;14.40;82.40;;;;;;4996136;28;20612;-77
2022/01/20 12:54:16;;;;;;;11.00;2.40;;;14.40;82.20;;;;;;5011176;28;20830;-78
2022/01/20 12:56:47;;;;;;;10.13;2.42;;;14.30;79.20;;;;;;5003261;28;20521;-79
2022/01/20 12:59:27;;;;;;;16.00;2.65;;;14.20;80.00;;;;;;5005573;28;20050;-78
2022/01/20 13:02:06;;;;;;;11.63;2.45;;;14.20;80.70;;;;;;4972880;28;20073;-79
2022/01/20 13:04:36;;;;;;;10.93;2.45;;;14.10;81.50;;;;;;5003590;28;20042;-77
2022/01/20 13:07:07;;;;;;;13.35;2.38;;;14.20;82.00;;;;;;5005813;28;20118;-78
2022/01/20 13:09:38;;;;;;;14.32;2.55;;;14.20;81.10;;;;;;5003844;28;20041;-77
2022/01/20 13:12:08;;;;;;;15.70;2.72;;;14.00;81.00;;;;;;4999068;28;20375;-79
2022/01/20 13:14:37;;;;;;;14.60;2.60;;;13.90;81.90;;;;;;5003113;28;20050;-77
2022/01/20 13:17:07;;;;;;;11.70;2.47;;;13.80;81.80;;;;;;5007342;28;20050;-75
2022/01/20 13:19:36;;;;;;;13.75;2.35;;;13.40;81.50;;;;;;4993981;28;20061;-78
2022/01/20 13:22:07;;;;;;;10.13;2.15;;;12.80;82.20;;;;;;5005689;28;20037;-75
2022/01/20 13:24:36;;;;;;;12.05;2.20;;;12.20;82.80;;;;;;5002719;28;20041;-76
2022/01/20 13:27:06;;;;;;;15.80;2.30;;;11.50;83.80;;;;;;4995146;28;20041;-76
2022/01/20 13:29:47;;;;;;;12.60;2.25;;;10.90;84.70;;;;;;5005350;28;20642;-76
2022/01/20 13:32:15;;;;;;;11.50;2.10;;;10.40;86.00;;;;;;5003674;28;20128;-76
2022/01/20 13:34:56;;;;;;;11.38;2.13;;;10.00;86.70;;;;;;5004343;28;20045;-78
2022/01/20 13:37:25;;;;;;;8.77;1.80;;;9.60;88.00;;;;;;4999545;28;20050;-76
2022/01/20 13:39:57;;;;;;;10.82;2.10;;;9.20;88.90;;;;;;5005145;28;20064;-76
2022/01/20 13:45:18;;;;;;;10.13;2.00;;;8.70;90.40;;;;;;5005640;28;20474;-76
2022/01/20 13:47:59;;;;;;;12.63;1.90;;;8.50;90.70;;;;;;4988562;28;20079;-78
2022/01/20 13:50:34;;;;;;;16.50;2.08;;;8.30;90.60;;;;;;4987854;28;20046;-78
2022/01/20 13:53:18;;;;;;;14.27;2.33;;;8.10;90.70;;;;;;4969594;28;20172;-75
2022/01/20 13:55:49;;;;;;;17.00;2.17;;;7.90;90.90;;;;;;4987760;28;20522;-77
2022/01/20 13:58:22;;;;;;;12.55;2.35;;;7.80;91.30;;;;;;4985556;28;20046;-76
2022/01/20 14:00:51;;;;;;;11.57;2.10;;;7.70;91.80;;;;;;4985320;28;20042;-75
2022/01/20 14:03:20;;;;;;;19.55;3.30;;;7.50;92.10;;;;;;4984852;28;20403;-75
2022/01/20 14:05:49;;;;;;;10.38;2.47;;;7.50;92.50;;;;;;4985202;28;20054;-76
2022/01/20 14:08:18;;;;;;;18.65;2.80;;;7.40;92.80;;;;;;4989494;28;20038;-74
2022/01/20 14:10:45;;;;;;;11.38;2.22;;;7.40;93.10;;;;;;5000783;28;20392;-78
2022/01/20 14:13:13;;;;;;;18.50;2.72;;;7.30;93.40;;;;;;4973254;28;20366;-77
2022/01/20 14:15:41;;;;;;;18.33;2.40;;;7.20;93.70;;;;;;4999861;28;20518;-77
2022/01/20 14:18:09;;;;;;;14.02;2.30;;;7.20;94.00;;;;;;5004782;28;20046;-79
2022/01/20 14:20:37;;;;;;;14.07;2.30;;;7.20;94.20;;;;;;5000929;28;20045;-74